Diretta Meteo Roma-Ciampino, Italiagiovedì 20 giugno ore 00:50

Mappa
Sereno 20 °C Sereno 24 Ore: T.min 18 T.max 29
Ponente Nord Km/h 5.5 Punto di rugiada: 18 °C Umidità: 88% Visibilità: 10 Km
Il sole sorge alle: 05:33 Il sole tramonta alle: 20:49
20 Giugno 2019 00:50 tempo osservato: Sereno Sereno 20 88 1014 vento: Nord N 5.5
20 Giugno 2019 00:20 tempo osservato: Sereno Sereno 20 82 1015 vento: Nord N 5.5
19 Giugno 2019 23:50 tempo osservato: Sereno Sereno 20 88 1015 vento: Nord N 5.5
19 Giugno 2019 23:20 tempo osservato: Sereno Sereno 21 82 1015 vento: Nord N 3.7
19 Giugno 2019 22:50 tempo osservato: Sereno Sereno 21 82 1014 vento: Nord S/SO 7.4
19 Giugno 2019 22:20 tempo osservato: Sereno Sereno 22 73 1014 vento: Nord S 7.4
19 Giugno 2019 21:50 tempo osservato: Sereno Sereno 23 68 1014 vento: Nord N 5.5
19 Giugno 2019 21:20 tempo osservato: Sereno Sereno 24 64 1014 vento: Nord N 5.5
19 Giugno 2019 20:50 tempo osservato: Sereno Sereno 25 61 1014 vento: Nord N 5.5
19 Giugno 2019 20:20 tempo osservato: Sereno Sereno 26 57 1013 vento: Nord N 5.5
19 Giugno 2019 19:50 tempo osservato: Sereno Sereno 27 54 1013 vento: Nord SO 7.4
19 Giugno 2019 19:20 tempo osservato: Sereno Sereno 27 50 1013 vento: Nord SO 9.3
19 Giugno 2019 18:50 tempo osservato: Sereno Sereno 28 45 1013 vento: Nord O/SO 9.3
19 Giugno 2019 18:20 tempo osservato: Sereno Sereno 28 51 1013 vento: Nord O/SO 9.3
19 Giugno 2019 17:50 tempo osservato: Sereno Sereno 28 51 1013 vento: Nord O/SO 9.3
19 Giugno 2019 17:20 tempo osservato: Sereno Sereno 28 51 1013 vento: Nord SO 13
19 Giugno 2019 16:50 tempo osservato: Sereno Sereno 28 51 1014 vento: Nord SO 13
19 Giugno 2019 16:20 tempo osservato: Sereno Sereno 28 48 1014 vento: Nord O/SO 13
19 Giugno 2019 15:50 tempo osservato: Sereno Sereno 29 42 1014 vento: Nord SO 13
19 Giugno 2019 15:20 tempo osservato: Sereno Sereno 29 45 1014 vento: Nord SO 13
19 Giugno 2019 14:50 tempo osservato: Sereno Sereno 29 45 1014 vento: Nord SO 11.1
19 Giugno 2019 14:20 tempo osservato: Sereno Sereno 28 48 1014 vento: Nord SO 13
19 Giugno 2019 13:50 tempo osservato: Sereno Sereno 28 51 1014 vento: Nord SO 9.3
19 Giugno 2019 13:20 tempo osservato: Sereno Sereno 28 51 1015 vento: Nord SO 11.1
19 Giugno 2019 12:50 tempo osservato: Poco Nuvoloso Poco Nuvoloso 28 54 1014 vento: Nord O/SO 14.8
19 Giugno 2019 12:20 tempo osservato: Poco Nuvoloso Poco Nuvoloso 28 54 1014 vento: Nord O 11.1
19 Giugno 2019 11:50 tempo osservato: Sereno Sereno 28 54 1014 vento: Nord N 7.4
19 Giugno 2019 11:20 tempo osservato: Sereno Sereno 27 54 1014 vento: Nord O 7.4
19 Giugno 2019 10:50 tempo osservato: Sereno Sereno 27 54 1014 vento: Nord N 5.5
19 Giugno 2019 10:20 tempo osservato: Sereno Sereno 26 57 1014 vento: Nord N 5.5
19 Giugno 2019 09:50 tempo osservato: Sereno Sereno 26 57 1014 vento: Nord SO 7.4
19 Giugno 2019 09:20 tempo osservato: Sereno Sereno 25 61 1014 vento: Nord S/SO 7.4
19 Giugno 2019 08:50 tempo osservato: Sereno Sereno 24 69 1014 vento: Nord SO 7.4
19 Giugno 2019 08:20 tempo osservato: Sereno Sereno 23 68 1014 vento: Nord SO 9.3
19 Giugno 2019 07:50 tempo osservato: Sereno Sereno 22 73 1014 vento: Nord N 3.7
19 Giugno 2019 07:20 tempo osservato: Sereno Sereno 21 77 1014 vento: Nord N 1.8
19 Giugno 2019 05:50 tempo osservato: Banco di Nebbia Banco di Nebbia 18 82 1014 vento: Nord N 3.7
19 Giugno 2019 05:20 tempo osservato: Sereno Sereno 18 77 1014 vento: Nord E/SE 7.4
19 Giugno 2019 04:50 tempo osservato: Sereno Sereno 19 77 1014 vento: Nord N 1.8
19 Giugno 2019 04:20 tempo osservato: Sereno Sereno 18 82 1014 vento: Nord N 5.5
19 Giugno 2019 02:50 tempo osservato: Sereno Sereno 19 77 1014 vento: Nord N 1.8
19 Giugno 2019 02:20 tempo osservato: Sereno Sereno 19 77 1014 vento: Nord N 5.5
19 Giugno 2019 01:50 tempo osservato: Sereno Sereno 20 72 1014 vento: Nord N 3.7